createdAt,value
2017-07-20T00:07:31.000Z,25.47
2017-07-20T00:17:31.000Z,25.48
2017-07-20T00:27:31.000Z,25.45
2017-07-20T00:37:31.000Z,25.41
2017-07-20T00:47:31.000Z,25.4
2017-07-20T00:57:31.000Z,25.38
2017-07-20T01:07:31.000Z,25.37
2017-07-20T01:17:31.000Z,25.34
2017-07-20T01:27:31.000Z,25.32
2017-07-20T01:37:31.000Z,25.29
2017-07-20T01:47:31.000Z,25.27
2017-07-20T01:57:31.000Z,25.24
2017-07-20T02:07:31.000Z,25.21
2017-07-20T02:17:31.000Z,25.19
2017-07-20T02:27:31.000Z,25.17
2017-07-20T02:37:31.000Z,25.15
2017-07-20T02:47:31.000Z,25.14
2017-07-20T02:57:32.000Z,25.12
2017-07-20T03:07:31.000Z,25.1
2017-07-20T03:17:31.000Z,25.09
2017-07-20T03:27:31.000Z,25.06
2017-07-20T03:37:31.000Z,25.04
2017-07-20T03:47:31.000Z,25.03
2017-07-20T03:57:31.000Z,25.01
2017-07-20T04:07:31.000Z,24.98
2017-07-20T04:17:31.000Z,24.96
2017-07-20T04:27:31.000Z,24.94
2017-07-20T04:37:31.000Z,24.92
2017-07-20T04:47:31.000Z,24.91
2017-07-20T04:57:31.000Z,24.89
2017-07-20T05:07:31.000Z,24.87
2017-07-20T05:17:31.000Z,24.85
2017-07-20T05:27:31.000Z,24.83
2017-07-20T05:37:31.000Z,24.81
2017-07-20T05:47:31.000Z,24.8
2017-07-20T05:57:31.000Z,24.78
2017-07-20T06:07:31.000Z,24.77
2017-07-20T06:17:31.000Z,24.75
2017-07-20T06:27:31.000Z,24.77
2017-07-20T06:37:31.000Z,24.81
2017-07-20T06:47:31.000Z,24.84
2017-07-20T06:57:31.000Z,24.91
2017-07-20T07:07:31.000Z,24.98
2017-07-20T07:17:31.000Z,25.02
2017-07-20T07:27:31.000Z,25.06
2017-07-20T07:37:31.000Z,25.02
2017-07-20T07:47:31.000Z,25.04
2017-07-20T07:57:31.000Z,25.13
2017-07-20T08:07:32.000Z,25.07
2017-07-20T08:17:32.000Z,25.03
2017-07-20T08:27:32.000Z,25.01
2017-07-20T08:37:32.000Z,25.05
2017-07-20T08:47:32.000Z,25.09
2017-07-20T08:57:32.000Z,25.11
2017-07-20T09:07:32.000Z,25.08
2017-07-20T09:17:32.000Z,25.09
2017-07-20T09:27:32.000Z,25.17
2017-07-20T09:37:32.000Z,25.16
2017-07-20T09:47:32.000Z,25.32
2017-07-20T09:57:32.000Z,25.4
2017-07-20T10:07:33.000Z,25.48
2017-07-20T10:17:32.000Z,25.4
2017-07-20T10:27:32.000Z,25.52
2017-07-20T10:37:32.000Z,25.55
2017-07-20T10:47:32.000Z,25.55
2017-07-20T10:57:32.000Z,25.71
2017-07-20T11:07:32.000Z,25.71
2017-07-20T11:17:32.000Z,25.81
2017-07-20T11:27:32.000Z,25.79
2017-07-20T11:37:32.000Z,25.71
2017-07-20T11:47:32.000Z,25.78
2017-07-20T11:57:32.000Z,25.88
2017-07-20T12:07:32.000Z,25.87
2017-07-20T12:17:32.000Z,26
2017-07-20T12:27:32.000Z,26.15
2017-07-20T12:37:32.000Z,26.16
2017-07-20T12:47:32.000Z,26.22
2017-07-20T12:57:32.000Z,26.35
2017-07-20T13:07:32.000Z,26.19
2017-07-20T13:17:32.000Z,26.12
2017-07-20T13:27:32.000Z,26.08
2017-07-20T13:37:32.000Z,26.25
2017-07-20T13:47:32.000Z,26.16
2017-07-20T13:57:32.000Z,26.15
2017-07-20T14:07:32.000Z,26.17
2017-07-20T14:17:32.000Z,26.3
2017-07-20T14:37:32.000Z,26.27
2017-07-20T14:47:32.000Z,26.27
2017-07-20T14:57:32.000Z,26.3
2017-07-20T15:07:32.000Z,26.25
2017-07-20T15:17:32.000Z,26.24
2017-07-20T15:27:32.000Z,26.26
2017-07-20T15:37:32.000Z,26.3
2017-07-20T15:47:35.000Z,26.27
2017-07-20T15:57:32.000Z,26.32
2017-07-20T16:07:32.000Z,26.31
2017-07-20T16:17:33.000Z,26.28
2017-07-20T16:27:32.000Z,26.3
2017-07-20T16:37:33.000Z,26.34
2017-07-20T16:47:33.000Z,26.33
2017-07-20T16:57:33.000Z,26.33
2017-07-20T17:07:33.000Z,26.31
2017-07-20T17:17:33.000Z,26.3
2017-07-20T17:27:33.000Z,26.3
2017-07-20T17:37:35.000Z,26.34
2017-07-20T17:47:33.000Z,26.31
2017-07-20T17:57:33.000Z,26.31
2017-07-20T18:07:34.000Z,26.29
2017-07-20T18:17:35.000Z,26.24
2017-07-20T18:27:33.000Z,26.27
2017-07-20T18:37:37.000Z,26.24
2017-07-20T18:47:33.000Z,26.21
2017-07-20T18:57:33.000Z,26.19
2017-07-20T19:07:33.000Z,26.15
2017-07-20T19:17:33.000Z,26.07
2017-07-20T19:27:33.000Z,26.04
2017-07-20T19:37:33.000Z,26.03
2017-07-20T19:47:34.000Z,26
2017-07-20T19:57:33.000Z,25.93
2017-07-20T20:07:33.000Z,25.88
2017-07-20T20:17:35.000Z,25.87
2017-07-20T20:27:33.000Z,25.84
2017-07-20T20:37:33.000Z,25.81
2017-07-20T20:47:33.000Z,25.79
2017-07-20T20:57:33.000Z,25.76
2017-07-20T21:07:33.000Z,25.72
2017-07-20T21:17:34.000Z,25.71
2017-07-20T21:27:33.000Z,25.67
2017-07-20T21:37:33.000Z,25.65
2017-07-20T21:47:33.000Z,25.62
2017-07-20T21:57:33.000Z,25.59
2017-07-20T22:07:33.000Z,25.55
2017-07-20T22:17:33.000Z,25.5
2017-07-20T22:27:33.000Z,25.48
2017-07-20T22:37:33.000Z,25.45
2017-07-20T22:47:33.000Z,25.42
2017-07-20T22:57:33.000Z,25.41
2017-07-20T23:07:33.000Z,25.37
2017-07-20T23:17:33.000Z,25.34
2017-07-20T23:27:34.000Z,25.31
2017-07-20T23:37:33.000Z,25.27
2017-07-20T23:47:33.000Z,25.23
2017-07-20T23:57:33.000Z,25.19
